sensor_id;sensor_type;location;lat;lon;timestamp;P1;durP1;ratioP1;P2;durP2;ratioP2
57707;SDS011;43540;51.690;9.562;2023-08-08T00:00:35;2.63;;;1.60;;
57707;SDS011;43540;51.690;9.562;2023-08-08T00:03:02;4.88;;;1.67;;
57707;SDS011;43540;51.690;9.562;2023-08-08T00:05:29;4.97;;;2.20;;
57707;SDS011;43540;51.690;9.562;2023-08-08T00:07:55;2.80;;;1.80;;
57707;SDS011;43540;51.690;9.562;2023-08-08T00:10:22;4.18;;;2.08;;
57707;SDS011;43540;51.690;9.562;2023-08-08T00:12:49;2.60;;;1.90;;
57707;SDS011;43540;51.690;9.562;2023-08-08T00:15:16;3.08;;;2.00;;
57707;SDS011;43540;51.690;9.562;2023-08-08T00:17:43;4.57;;;1.88;;
57707;SDS011;43540;51.690;9.562;2023-08-08T00:20:10;4.07;;;2.10;;
57707;SDS011;43540;51.690;9.562;2023-08-08T00:22:40;6.47;;;2.33;;
57707;SDS011;43540;51.690;9.562;2023-08-08T00:25:07;4.40;;;2.17;;
57707;SDS011;43540;51.690;9.562;2023-08-08T00:27:35;4.50;;;2.35;;
57707;SDS011;43540;51.690;9.562;2023-08-08T00:30:02;2.70;;;1.70;;
57707;SDS011;43540;51.690;9.562;2023-08-08T00:32:29;2.80;;;1.70;;
57707;SDS011;43540;51.690;9.562;2023-08-08T00:34:55;5.18;;;2.38;;
57707;SDS011;43540;51.690;9.562;2023-08-08T00:37:22;3.40;;;1.90;;
57707;SDS011;43540;51.690;9.562;2023-08-08T00:39:49;3.35;;;2.03;;
57707;SDS011;43540;51.690;9.562;2023-08-08T00:42:15;4.13;;;2.00;;
57707;SDS011;43540;51.690;9.562;2023-08-08T00:44:45;6.13;;;2.28;;
57707;SDS011;43540;51.690;9.562;2023-08-08T00:47:12;3.20;;;2.13;;
57707;SDS011;43540;51.690;9.562;2023-08-08T00:49:39;7.18;;;2.28;;
57707;SDS011;43540;51.690;9.562;2023-08-08T00:52:06;6.32;;;1.92;;
57707;SDS011;43540;51.690;9.562;2023-08-08T00:54:34;4.18;;;2.00;;
57707;SDS011;43540;51.690;9.562;2023-08-08T00:57:01;4.72;;;1.83;;
57707;SDS011;43540;51.690;9.562;2023-08-08T00:59:28;3.80;;;1.88;;
57707;SDS011;43540;51.690;9.562;2023-08-08T01:01:56;5.22;;;2.47;;
57707;SDS011;43540;51.690;9.562;2023-08-08T01:04:25;5.95;;;2.05;;
57707;SDS011;43540;51.690;9.562;2023-08-08T01:09:43;4.32;;;2.13;;
57707;SDS011;43540;51.690;9.562;2023-08-08T01:12:21;3.55;;;2.08;;
57707;SDS011;43540;51.690;9.562;2023-08-08T01:14:53;4.22;;;2.10;;
57707;SDS011;43540;51.690;9.562;2023-08-08T01:17:21;2.60;;;1.63;;
57707;SDS011;43540;51.690;9.562;2023-08-08T01:19:48;4.78;;;2.05;;
57707;SDS011;43540;51.690;9.562;2023-08-08T01:22:22;3.67;;;1.90;;
57707;SDS011;43540;51.690;9.562;2023-08-08T01:24:52;3.70;;;2.00;;
57707;SDS011;43540;51.690;9.562;2023-08-08T01:27:21;3.78;;;2.10;;
57707;SDS011;43540;51.690;9.562;2023-08-08T01:29:48;2.50;;;1.98;;
57707;SDS011;43540;51.690;9.562;2023-08-08T01:32:15;3.47;;;1.95;;
57707;SDS011;43540;51.690;9.562;2023-08-08T01:34:41;2.72;;;1.80;;
57707;SDS011;43540;51.690;9.562;2023-08-08T01:39:45;2.50;;;1.65;;
57707;SDS011;43540;51.690;9.562;2023-08-08T01:42:13;2.92;;;1.73;;
57707;SDS011;43540;51.690;9.562;2023-08-08T01:44:41;3.80;;;2.25;;
57707;SDS011;43540;51.690;9.562;2023-08-08T01:47:08;5.15;;;2.55;;
57707;SDS011;43540;51.690;9.562;2023-08-08T01:49:35;3.75;;;1.70;;
57707;SDS011;43540;51.690;9.562;2023-08-08T01:52:02;2.85;;;1.88;;
57707;SDS011;43540;51.690;9.562;2023-08-08T01:54:29;3.88;;;2.50;;
57707;SDS011;43540;51.690;9.562;2023-08-08T01:56:56;6.00;;;2.45;;
57707;SDS011;43540;51.690;9.562;2023-08-08T01:59:22;4.88;;;2.35;;
57707;SDS011;43540;51.690;9.562;2023-08-08T02:01:49;4.20;;;2.13;;
57707;SDS011;43540;51.690;9.562;2023-08-08T02:04:16;5.63;;;2.00;;
57707;SDS011;43540;51.690;9.562;2023-08-08T02:06:43;5.82;;;2.30;;
57707;SDS011;43540;51.690;9.562;2023-08-08T02:09:09;5.50;;;2.50;;
57707;SDS011;43540;51.690;9.562;2023-08-08T02:11:37;5.40;;;2.28;;
57707;SDS011;43540;51.690;9.562;2023-08-08T02:14:03;4.22;;;2.15;;
57707;SDS011;43540;51.690;9.562;2023-08-08T02:16:30;3.97;;;2.35;;
57707;SDS011;43540;51.690;9.562;2023-08-08T02:18:57;5.47;;;2.60;;
57707;SDS011;43540;51.690;9.562;2023-08-08T02:21:24;5.60;;;2.65;;
57707;SDS011;43540;51.690;9.562;2023-08-08T02:23:50;3.60;;;2.28;;
57707;SDS011;43540;51.690;9.562;2023-08-08T02:26:17;4.55;;;2.47;;
57707;SDS011;43540;51.690;9.562;2023-08-08T02:28:45;4.32;;;2.33;;
57707;SDS011;43540;51.690;9.562;2023-08-08T02:31:12;3.40;;;2.20;;
57707;SDS011;43540;51.690;9.562;2023-08-08T02:33:39;4.93;;;2.60;;
57707;SDS011;43540;51.690;9.562;2023-08-08T02:36:06;4.75;;;2.67;;
57707;SDS011;43540;51.690;9.562;2023-08-08T02:38:32;5.13;;;2.65;;
57707;SDS011;43540;51.690;9.562;2023-08-08T02:40:59;5.93;;;2.83;;
57707;SDS011;43540;51.690;9.562;2023-08-08T02:43:26;4.95;;;2.55;;
57707;SDS011;43540;51.690;9.562;2023-08-08T02:45:53;4.82;;;2.95;;
57707;SDS011;43540;51.690;9.562;2023-08-08T02:48:20;6.63;;;2.67;;
57707;SDS011;43540;51.690;9.562;2023-08-08T02:50:47;4.20;;;2.70;;
57707;SDS011;43540;51.690;9.562;2023-08-08T02:53:13;4.22;;;2.75;;
57707;SDS011;43540;51.690;9.562;2023-08-08T02:55:40;5.68;;;2.95;;
57707;SDS011;43540;51.690;9.562;2023-08-08T02:58:07;4.47;;;2.78;;
57707;SDS011;43540;51.690;9.562;2023-08-08T03:00:34;8.13;;;3.25;;
57707;SDS011;43540;51.690;9.562;2023-08-08T03:03:00;6.38;;;2.80;;
57707;SDS011;43540;51.690;9.562;2023-08-08T03:05:29;5.05;;;2.75;;
57707;SDS011;43540;51.690;9.562;2023-08-08T03:07:56;7.15;;;3.30;;
57707;SDS011;43540;51.690;9.562;2023-08-08T03:10:23;4.95;;;2.92;;
57707;SDS011;43540;51.690;9.562;2023-08-08T03:12:50;6.03;;;3.20;;
57707;SDS011;43540;51.690;9.562;2023-08-08T03:15:17;4.40;;;2.80;;
57707;SDS011;43540;51.690;9.562;2023-08-08T03:17:44;4.85;;;2.67;;
57707;SDS011;43540;51.690;9.562;2023-08-08T03:20:11;6.22;;;3.45;;
57707;SDS011;43540;51.690;9.562;2023-08-08T03:22:38;6.05;;;2.97;;
57707;SDS011;43540;51.690;9.562;2023-08-08T03:25:05;5.60;;;2.90;;
57707;SDS011;43540;51.690;9.562;2023-08-08T03:27:32;4.35;;;2.80;;
57707;SDS011;43540;51.690;9.562;2023-08-08T03:29:59;4.32;;;2.67;;
57707;SDS011;43540;51.690;9.562;2023-08-08T03:32:26;5.78;;;2.58;;
57707;SDS011;43540;51.690;9.562;2023-08-08T03:34:54;4.43;;;2.70;;
57707;SDS011;43540;51.690;9.562;2023-08-08T03:37:21;4.30;;;2.67;;
57707;SDS011;43540;51.690;9.562;2023-08-08T03:39:51;4.10;;;2.90;;
57707;SDS011;43540;51.690;9.562;2023-08-08T03:42:18;5.57;;;2.60;;
57707;SDS011;43540;51.690;9.562;2023-08-08T03:44:45;5.82;;;2.97;;
57707;SDS011;43540;51.690;9.562;2023-08-08T03:47:12;4.35;;;2.55;;
57707;SDS011;43540;51.690;9.562;2023-08-08T03:49:45;3.80;;;2.55;;
57707;SDS011;43540;51.690;9.562;2023-08-08T03:52:12;5.78;;;2.72;;
57707;SDS011;43540;51.690;9.562;2023-08-08T03:54:39;6.75;;;2.78;;
57707;SDS011;43540;51.690;9.562;2023-08-08T03:57:06;4.72;;;2.42;;
57707;SDS011;43540;51.690;9.562;2023-08-08T03:59:33;3.38;;;2.33;;
57707;SDS011;43540;51.690;9.562;2023-08-08T04:02:00;5.38;;;2.78;;
57707;SDS011;43540;51.690;9.562;2023-08-08T04:04:27;3.08;;;2.28;;
57707;SDS011;43540;51.690;9.562;2023-08-08T04:06:54;4.55;;;2.42;;
57707;SDS011;43540;51.690;9.562;2023-08-08T04:09:21;4.28;;;2.60;;
57707;SDS011;43540;51.690;9.562;2023-08-08T04:11:47;4.20;;;2.35;;
57707;SDS011;43540;51.690;9.562;2023-08-08T04:14:14;5.10;;;2.60;;
57707;SDS011;43540;51.690;9.562;2023-08-08T04:16:41;4.80;;;2.50;;
57707;SDS011;43540;51.690;9.562;2023-08-08T04:19:14;3.67;;;2.75;;
57707;SDS011;43540;51.690;9.562;2023-08-08T04:21:40;3.88;;;2.22;;
57707;SDS011;43540;51.690;9.562;2023-08-08T04:24:07;4.00;;;2.42;;
57707;SDS011;43540;51.690;9.562;2023-08-08T04:30:37;5.43;;;2.28;;
57707;SDS011;43540;51.690;9.562;2023-08-08T04:33:04;3.85;;;2.53;;
57707;SDS011;43540;51.690;9.562;2023-08-08T04:35:35;4.05;;;2.97;;
57707;SDS011;43540;51.690;9.562;2023-08-08T04:38:08;4.30;;;2.88;;
57707;SDS011;43540;51.690;9.562;2023-08-08T04:40:35;4.90;;;2.63;;
57707;SDS011;43540;51.690;9.562;2023-08-08T04:43:04;3.70;;;2.60;;
57707;SDS011;43540;51.690;9.562;2023-08-08T04:45:34;4.32;;;2.85;;
57707;SDS011;43540;51.690;9.562;2023-08-08T04:48:06;4.50;;;3.10;;
57707;SDS011;43540;51.690;9.562;2023-08-08T04:50:33;6.65;;;3.80;;
57707;SDS011;43540;51.690;9.562;2023-08-08T04:53:00;5.82;;;2.80;;
57707;SDS011;43540;51.690;9.562;2023-08-08T04:55:27;5.93;;;2.92;;
57707;SDS011;43540;51.690;9.562;2023-08-08T04:57:58;4.93;;;2.92;;
57707;SDS011;43540;51.690;9.562;2023-08-08T05:00:25;4.75;;;2.88;;
57707;SDS011;43540;51.690;9.562;2023-08-08T05:02:53;4.07;;;2.90;;
57707;SDS011;43540;51.690;9.562;2023-08-08T05:05:20;4.97;;;3.05;;
57707;SDS011;43540;51.690;9.562;2023-08-08T05:07:47;4.05;;;2.88;;
57707;SDS011;43540;51.690;9.562;2023-08-08T05:10:14;5.30;;;3.40;;
57707;SDS011;43540;51.690;9.562;2023-08-08T05:12:41;4.78;;;3.20;;
57707;SDS011;43540;51.690;9.562;2023-08-08T05:15:08;8.27;;;3.20;;
57707;SDS011;43540;51.690;9.562;2023-08-08T05:17:36;3.72;;;2.90;;
57707;SDS011;43540;51.690;9.562;2023-08-08T05:20:03;4.50;;;3.08;;
57707;SDS011;43540;51.690;9.562;2023-08-08T05:22:31;5.03;;;2.92;;
57707;SDS011;43540;51.690;9.562;2023-08-08T05:24:58;6.03;;;3.42;;
57707;SDS011;43540;51.690;9.562;2023-08-08T05:27:25;3.95;;;2.60;;
57707;SDS011;43540;51.690;9.562;2023-08-08T05:29:52;3.78;;;2.53;;
57707;SDS011;43540;51.690;9.562;2023-08-08T05:32:19;5.13;;;2.80;;
57707;SDS011;43540;51.690;9.562;2023-08-08T05:34:49;5.35;;;3.10;;
57707;SDS011;43540;51.690;9.562;2023-08-08T05:37:17;5.72;;;3.20;;
57707;SDS011;43540;51.690;9.562;2023-08-08T05:39:45;7.95;;;2.80;;
57707;SDS011;43540;51.690;9.562;2023-08-08T05:42:11;4.57;;;2.70;;
57707;SDS011;43540;51.690;9.562;2023-08-08T05:44:39;7.75;;;3.30;;
57707;SDS011;43540;51.690;9.562;2023-08-08T05:47:08;5.45;;;2.75;;
57707;SDS011;43540;51.690;9.562;2023-08-08T05:49:36;5.95;;;2.83;;
57707;SDS011;43540;51.690;9.562;2023-08-08T05:52:03;5.07;;;2.92;;
57707;SDS011;43540;51.690;9.562;2023-08-08T05:54:30;5.45;;;2.90;;
57707;SDS011;43540;51.690;9.562;2023-08-08T05:56:57;5.95;;;2.90;;
57707;SDS011;43540;51.690;9.562;2023-08-08T05:59:24;3.72;;;2.80;;
57707;SDS011;43540;51.690;9.562;2023-08-08T06:01:54;7.18;;;3.00;;
57707;SDS011;43540;51.690;9.562;2023-08-08T06:04:22;6.60;;;2.92;;
57707;SDS011;43540;51.690;9.562;2023-08-08T06:06:49;5.93;;;3.15;;
57707;SDS011;43540;51.690;9.562;2023-08-08T06:09:17;4.68;;;2.88;;
57707;SDS011;43540;51.690;9.562;2023-08-08T06:11:44;6.63;;;2.90;;
57707;SDS011;43540;51.690;9.562;2023-08-08T06:14:11;6.53;;;3.17;;
57707;SDS011;43540;51.690;9.562;2023-08-08T06:16:38;6.63;;;2.97;;
57707;SDS011;43540;51.690;9.562;2023-08-08T06:19:05;7.53;;;3.40;;
57707;SDS011;43540;51.690;9.562;2023-08-08T06:21:32;6.68;;;2.95;;
57707;SDS011;43540;51.690;9.562;2023-08-08T06:24:00;5.55;;;3.33;;
57707;SDS011;43540;51.690;9.562;2023-08-08T06:26:27;5.90;;;3.50;;
57707;SDS011;43540;51.690;9.562;2023-08-08T06:28:54;5.90;;;3.28;;
57707;SDS011;43540;51.690;9.562;2023-08-08T06:31:21;7.38;;;3.53;;
57707;SDS011;43540;51.690;9.562;2023-08-08T06:33:49;8.38;;;3.17;;
57707;SDS011;43540;51.690;9.562;2023-08-08T06:36:17;5.95;;;3.40;;
57707;SDS011;43540;51.690;9.562;2023-08-08T06:38:43;6.45;;;3.63;;
57707;SDS011;43540;51.690;9.562;2023-08-08T06:41:11;5.22;;;3.25;;
57707;SDS011;43540;51.690;9.562;2023-08-08T06:43:38;5.80;;;3.47;;
57707;SDS011;43540;51.690;9.562;2023-08-08T06:46:06;7.30;;;3.75;;
57707;SDS011;43540;51.690;9.562;2023-08-08T06:48:33;9.65;;;4.47;;
57707;SDS011;43540;51.690;9.562;2023-08-08T06:51:00;8.45;;;3.55;;
57707;SDS011;43540;51.690;9.562;2023-08-08T06:53:27;6.18;;;3.30;;
57707;SDS011;43540;51.690;9.562;2023-08-08T06:55:54;5.75;;;3.38;;
57707;SDS011;43540;51.690;9.562;2023-08-08T06:58:20;5.88;;;3.55;;
57707;SDS011;43540;51.690;9.562;2023-08-08T07:00:47;5.18;;;3.35;;
57707;SDS011;43540;51.690;9.562;2023-08-08T07:03:15;5.15;;;3.50;;
57707;SDS011;43540;51.690;9.562;2023-08-08T07:05:42;7.25;;;3.60;;
57707;SDS011;43540;51.690;9.562;2023-08-08T07:08:09;6.40;;;3.58;;
57707;SDS011;43540;51.690;9.562;2023-08-08T07:10:39;5.18;;;3.38;;
57707;SDS011;43540;51.690;9.562;2023-08-08T07:13:06;6.00;;;3.60;;
57707;SDS011;43540;51.690;9.562;2023-08-08T07:15:33;6.50;;;3.78;;
57707;SDS011;43540;51.690;9.562;2023-08-08T07:18:00;5.68;;;3.58;;
57707;SDS011;43540;51.690;9.562;2023-08-08T07:20:28;9.20;;;3.90;;
57707;SDS011;43540;51.690;9.562;2023-08-08T07:22:55;7.25;;;3.92;;
57707;SDS011;43540;51.690;9.562;2023-08-08T07:25:23;6.68;;;3.65;;
57707;SDS011;43540;51.690;9.562;2023-08-08T07:27:50;8.38;;;4.15;;
57707;SDS011;43540;51.690;9.562;2023-08-08T07:30:17;7.78;;;4.13;;
57707;SDS011;43540;51.690;9.562;2023-08-08T07:32:45;5.13;;;3.65;;
57707;SDS011;43540;51.690;9.562;2023-08-08T07:35:12;7.07;;;4.20;;
57707;SDS011;43540;51.690;9.562;2023-08-08T07:37:39;7.50;;;3.75;;
57707;SDS011;43540;51.690;9.562;2023-08-08T07:40:13;6.43;;;4.05;;
57707;SDS011;43540;51.690;9.562;2023-08-08T07:42:47;11.15;;;5.00;;
57707;SDS011;43540;51.690;9.562;2023-08-08T07:45:15;6.63;;;4.43;;
57707;SDS011;43540;51.690;9.562;2023-08-08T07:47:42;10.10;;;4.72;;
57707;SDS011;43540;51.690;9.562;2023-08-08T07:50:10;8.57;;;4.60;;
57707;SDS011;43540;51.690;9.562;2023-08-08T07:52:38;8.63;;;4.30;;
57707;SDS011;43540;51.690;9.562;2023-08-08T07:55:05;8.20;;;4.32;;
57707;SDS011;43540;51.690;9.562;2023-08-08T07:57:32;8.30;;;4.40;;
57707;SDS011;43540;51.690;9.562;2023-08-08T08:00:03;8.60;;;4.63;;
57707;SDS011;43540;51.690;9.562;2023-08-08T08:02:38;8.18;;;4.40;;
57707;SDS011;43540;51.690;9.562;2023-08-08T08:05:06;8.02;;;4.63;;
57707;SDS011;43540;51.690;9.562;2023-08-08T08:07:34;8.50;;;4.30;;
57707;SDS011;43540;51.690;9.562;2023-08-08T08:10:02;9.18;;;4.22;;
57707;SDS011;43540;51.690;9.562;2023-08-08T08:12:31;8.30;;;4.50;;
57707;SDS011;43540;51.690;9.562;2023-08-08T08:14:58;9.60;;;4.28;;
57707;SDS011;43540;51.690;9.562;2023-08-08T08:17:25;6.78;;;4.45;;
57707;SDS011;43540;51.690;9.562;2023-08-08T08:19:54;8.05;;;4.50;;
57707;SDS011;43540;51.690;9.562;2023-08-08T08:22:21;7.07;;;4.38;;
57707;SDS011;43540;51.690;9.562;2023-08-08T08:24:48;9.32;;;4.72;;
57707;SDS011;43540;51.690;9.562;2023-08-08T08:27:15;6.75;;;4.28;;
57707;SDS011;43540;51.690;9.562;2023-08-08T08:29:42;7.75;;;4.38;;
57707;SDS011;43540;51.690;9.562;2023-08-08T08:32:09;9.20;;;4.95;;
57707;SDS011;43540;51.690;9.562;2023-08-08T08:34:36;7.93;;;4.47;;
57707;SDS011;43540;51.690;9.562;2023-08-08T08:37:03;7.18;;;4.75;;
57707;SDS011;43540;51.690;9.562;2023-08-08T08:39:30;8.07;;;4.90;;
57707;SDS011;43540;51.690;9.562;2023-08-08T08:41:58;7.88;;;4.88;;
57707;SDS011;43540;51.690;9.562;2023-08-08T08:44:31;8.98;;;5.07;;
57707;SDS011;43540;51.690;9.562;2023-08-08T08:46:59;8.80;;;4.75;;
57707;SDS011;43540;51.690;9.562;2023-08-08T08:49:29;10.07;;;4.78;;
57707;SDS011;43540;51.690;9.562;2023-08-08T08:52:00;10.13;;;5.53;;
57707;SDS011;43540;51.690;9.562;2023-08-08T08:54:28;8.68;;;4.82;;
57707;SDS011;43540;51.690;9.562;2023-08-08T08:56:56;8.38;;;5.30;;
57707;SDS011;43540;51.690;9.562;2023-08-08T08:59:24;8.32;;;5.15;;
57707;SDS011;43540;51.690;9.562;2023-08-08T09:01:51;9.35;;;5.20;;
57707;SDS011;43540;51.690;9.562;2023-08-08T09:04:19;8.75;;;5.20;;
57707;SDS011;43540;51.690;9.562;2023-08-08T09:06:48;8.85;;;5.38;;
57707;SDS011;43540;51.690;9.562;2023-08-08T09:09:17;10.20;;;5.38;;
57707;SDS011;43540;51.690;9.562;2023-08-08T09:11:54;9.07;;;5.20;;
57707;SDS011;43540;51.690;9.562;2023-08-08T09:14:25;9.43;;;5.38;;
57707;SDS011;43540;51.690;9.562;2023-08-08T09:16:56;11.55;;;5.78;;
57707;SDS011;43540;51.690;9.562;2023-08-08T09:19:24;9.90;;;5.50;;
57707;SDS011;43540;51.690;9.562;2023-08-08T09:21:51;8.75;;;5.38;;
57707;SDS011;43540;51.690;9.562;2023-08-08T09:24:19;10.02;;;5.53;;
57707;SDS011;43540;51.690;9.562;2023-08-08T09:26:46;8.05;;;5.43;;
57707;SDS011;43540;51.690;9.562;2023-08-08T09:29:14;10.75;;;5.78;;
57707;SDS011;43540;51.690;9.562;2023-08-08T09:31:41;8.75;;;5.53;;
57707;SDS011;43540;51.690;9.562;2023-08-08T09:34:08;8.63;;;5.30;;
57707;SDS011;43540;51.690;9.562;2023-08-08T09:36:35;9.35;;;5.22;;
57707;SDS011;43540;51.690;9.562;2023-08-08T09:39:03;11.48;;;5.20;;
57707;SDS011;43540;51.690;9.562;2023-08-08T09:41:31;10.02;;;5.40;;
57707;SDS011;43540;51.690;9.562;2023-08-08T09:43:59;8.70;;;5.65;;
57707;SDS011;43540;51.690;9.562;2023-08-08T09:46:29;9.48;;;5.65;;
57707;SDS011;43540;51.690;9.562;2023-08-08T09:48:57;7.90;;;4.68;;
57707;SDS011;43540;51.690;9.562;2023-08-08T09:51:25;8.57;;;4.68;;
57707;SDS011;43540;51.690;9.562;2023-08-08T09:53:56;7.00;;;4.80;;
57707;SDS011;43540;51.690;9.562;2023-08-08T09:56:23;9.30;;;5.75;;
57707;SDS011;43540;51.690;9.562;2023-08-08T09:58:52;10.45;;;5.57;;
57707;SDS011;43540;51.690;9.562;2023-08-08T10:01:20;10.25;;;5.70;;
57707;SDS011;43540;51.690;9.562;2023-08-08T10:03:47;9.77;;;5.32;;
57707;SDS011;43540;51.690;9.562;2023-08-08T10:06:18;11.38;;;5.63;;
57707;SDS011;43540;51.690;9.562;2023-08-08T10:08:45;7.85;;;5.35;;
57707;SDS011;43540;51.690;9.562;2023-08-08T10:11:12;9.18;;;5.70;;
57707;SDS011;43540;51.690;9.562;2023-08-08T10:13:50;9.15;;;4.93;;
57707;SDS011;43540;51.690;9.562;2023-08-08T10:16:19;8.77;;;5.13;;
57707;SDS011;43540;51.690;9.562;2023-08-08T10:18:58;7.13;;;4.75;;
57707;SDS011;43540;51.690;9.562;2023-08-08T10:21:26;9.95;;;5.45;;
57707;SDS011;43540;51.690;9.562;2023-08-08T10:24:04;10.55;;;5.18;;
57707;SDS011;43540;51.690;9.562;2023-08-08T10:26:33;11.73;;;5.40;;
57707;SDS011;43540;51.690;9.562;2023-08-08T10:29:01;9.02;;;5.15;;
57707;SDS011;43540;51.690;9.562;2023-08-08T10:31:32;10.05;;;5.35;;
57707;SDS011;43540;51.690;9.562;2023-08-08T10:34:02;8.30;;;5.13;;
57707;SDS011;43540;51.690;9.562;2023-08-08T10:36:50;13.63;;;5.15;;
57707;SDS011;43540;51.690;9.562;2023-08-08T10:39:19;10.10;;;5.65;;
57707;SDS011;43540;51.690;9.562;2023-08-08T10:41:48;10.38;;;6.05;;
57707;SDS011;43540;51.690;9.562;2023-08-08T10:44:22;11.48;;;5.63;;
57707;SDS011;43540;51.690;9.562;2023-08-08T10:46:52;11.68;;;6.05;;
57707;SDS011;43540;51.690;9.562;2023-08-08T10:49:22;10.93;;;5.40;;
57707;SDS011;43540;51.690;9.562;2023-08-08T10:51:49;8.45;;;5.30;;
57707;SDS011;43540;51.690;9.562;2023-08-08T10:54:22;11.10;;;5.70;;
57707;SDS011;43540;51.690;9.562;2023-08-08T10:56:54;11.82;;;5.63;;
57707;SDS011;43540;51.690;9.562;2023-08-08T10:59:24;9.93;;;5.53;;
57707;SDS011;43540;51.690;9.562;2023-08-08T11:01:52;9.68;;;5.88;;
57707;SDS011;43540;51.690;9.562;2023-08-08T11:04:21;10.30;;;5.10;;
57707;SDS011;43540;51.690;9.562;2023-08-08T11:06:53;9.93;;;5.30;;
57707;SDS011;43540;51.690;9.562;2023-08-08T11:09:20;7.60;;;5.20;;
57707;SDS011;43540;51.690;9.562;2023-08-08T11:11:48;10.75;;;5.20;;
57707;SDS011;43540;51.690;9.562;2023-08-08T11:14:16;10.95;;;5.10;;
57707;SDS011;43540;51.690;9.562;2023-08-08T11:16:44;7.88;;;4.80;;
57707;SDS011;43540;51.690;9.562;2023-08-08T11:19:15;9.23;;;4.93;;
57707;SDS011;43540;51.690;9.562;2023-08-08T11:22:13;8.68;;;5.07;;
57707;SDS011;43540;51.690;9.562;2023-08-08T11:24:40;10.70;;;5.50;;
57707;SDS011;43540;51.690;9.562;2023-08-08T11:27:07;8.85;;;5.18;;
57707;SDS011;43540;51.690;9.562;2023-08-08T11:29:34;10.65;;;5.07;;
57707;SDS011;43540;51.690;9.562;2023-08-08T11:32:01;8.95;;;4.90;;
57707;SDS011;43540;51.690;9.562;2023-08-08T11:34:32;8.65;;;5.30;;
57707;SDS011;43540;51.690;9.562;2023-08-08T11:37:02;8.35;;;4.50;;
57707;SDS011;43540;51.690;9.562;2023-08-08T11:39:30;8.65;;;4.95;;
57707;SDS011;43540;51.690;9.562;2023-08-08T11:41:57;8.18;;;4.30;;
57707;SDS011;43540;51.690;9.562;2023-08-08T11:44:25;7.57;;;4.35;;
57707;SDS011;43540;51.690;9.562;2023-08-08T11:46:52;7.25;;;4.13;;
57707;SDS011;43540;51.690;9.562;2023-08-08T11:49:19;7.25;;;4.72;;
57707;SDS011;43540;51.690;9.562;2023-08-08T11:51:46;8.57;;;4.47;;
57707;SDS011;43540;51.690;9.562;2023-08-08T11:54:13;8.77;;;4.50;;
57707;SDS011;43540;51.690;9.562;2023-08-08T11:56:40;8.95;;;4.47;;
57707;SDS011;43540;51.690;9.562;2023-08-08T11:59:07;9.60;;;4.90;;
57707;SDS011;43540;51.690;9.562;2023-08-08T12:01:37;7.32;;;4.68;;
57707;SDS011;43540;51.690;9.562;2023-08-08T12:04:07;7.53;;;4.45;;
57707;SDS011;43540;51.690;9.562;2023-08-08T12:06:36;10.70;;;4.72;;
57707;SDS011;43540;51.690;9.562;2023-08-08T12:09:05;7.28;;;4.70;;
57707;SDS011;43540;51.690;9.562;2023-08-08T12:11:36;6.38;;;4.20;;
57707;SDS011;43540;51.690;9.562;2023-08-08T12:14:09;8.65;;;4.30;;
57707;SDS011;43540;51.690;9.562;2023-08-08T12:16:37;8.07;;;4.38;;
57707;SDS011;43540;51.690;9.562;2023-08-08T14:12:49;5.97;;;2.55;;
57707;SDS011;43540;51.690;9.562;2023-08-08T14:15:16;5.22;;;2.45;;
57707;SDS011;43540;51.690;9.562;2023-08-08T14:17:43;3.85;;;2.40;;
57707;SDS011;43540;51.690;9.562;2023-08-08T14:20:11;5.45;;;2.50;;
57707;SDS011;43540;51.690;9.562;2023-08-08T14:22:46;5.15;;;2.47;;
57707;SDS011;43540;51.690;9.562;2023-08-08T14:25:13;5.22;;;2.80;;
57707;SDS011;43540;51.690;9.562;2023-08-08T14:27:41;3.70;;;2.53;;
57707;SDS011;43540;51.690;9.562;2023-08-08T14:30:08;5.40;;;2.72;;
57707;SDS011;43540;51.690;9.562;2023-08-08T14:32:36;5.72;;;2.78;;
57707;SDS011;43540;51.690;9.562;2023-08-08T14:35:05;4.20;;;2.33;;
57707;SDS011;43540;51.690;9.562;2023-08-08T14:37:32;5.18;;;2.58;;
57707;SDS011;43540;51.690;9.562;2023-08-08T14:39:59;6.28;;;3.05;;
57707;SDS011;43540;51.690;9.562;2023-08-08T14:42:26;3.42;;;2.30;;
57707;SDS011;43540;51.690;9.562;2023-08-08T14:44:52;5.28;;;2.30;;
57707;SDS011;43540;51.690;9.562;2023-08-08T14:47:20;3.30;;;2.33;;
57707;SDS011;43540;51.690;9.562;2023-08-08T14:49:49;7.38;;;2.67;;
57707;SDS011;43540;51.690;9.562;2023-08-08T14:52:17;4.20;;;2.63;;
57707;SDS011;43540;51.690;9.562;2023-08-08T14:54:44;6.70;;;2.85;;
57707;SDS011;43540;51.690;9.562;2023-08-08T14:57:11;6.07;;;2.55;;
57707;SDS011;43540;51.690;9.562;2023-08-08T14:59:38;7.18;;;2.92;;
57707;SDS011;43540;51.690;9.562;2023-08-08T15:02:05;6.18;;;3.00;;
57707;SDS011;43540;51.690;9.562;2023-08-08T15:04:33;5.57;;;2.70;;
57707;SDS011;43540;51.690;9.562;2023-08-08T15:07:00;6.82;;;3.00;;
57707;SDS011;43540;51.690;9.562;2023-08-08T15:09:33;6.43;;;2.63;;
57707;SDS011;43540;51.690;9.562;2023-08-08T15:12:00;4.00;;;2.58;;
57707;SDS011;43540;51.690;9.562;2023-08-08T15:14:27;5.38;;;2.65;;
57707;SDS011;43540;51.690;9.562;2023-08-08T15:16:54;6.55;;;2.72;;
57707;SDS011;43540;51.690;9.562;2023-08-08T15:19:21;5.40;;;2.85;;
57707;SDS011;43540;51.690;9.562;2023-08-08T15:21:48;5.57;;;3.03;;
57707;SDS011;43540;51.690;9.562;2023-08-08T15:24:15;3.95;;;2.70;;
57707;SDS011;43540;51.690;9.562;2023-08-08T15:26:42;4.20;;;2.80;;
57707;SDS011;43540;51.690;9.562;2023-08-08T15:29:09;4.82;;;2.90;;
57707;SDS011;43540;51.690;9.562;2023-08-08T15:31:37;5.88;;;3.05;;
57707;SDS011;43540;51.690;9.562;2023-08-08T15:34:06;6.05;;;2.95;;
57707;SDS011;43540;51.690;9.562;2023-08-08T15:36:34;6.15;;;3.03;;
57707;SDS011;43540;51.690;9.562;2023-08-08T15:39:03;6.28;;;3.20;;
57707;SDS011;43540;51.690;9.562;2023-08-08T15:41:31;6.95;;;2.80;;
57707;SDS011;43540;51.690;9.562;2023-08-08T15:43:58;5.10;;;3.30;;
57707;SDS011;43540;51.690;9.562;2023-08-08T15:46:34;6.82;;;3.10;;
57707;SDS011;43540;51.690;9.562;2023-08-08T15:49:01;4.60;;;2.90;;
57707;SDS011;43540;51.690;9.562;2023-08-08T15:51:28;6.47;;;2.70;;
57707;SDS011;43540;51.690;9.562;2023-08-08T15:53:55;5.78;;;3.00;;
57707;SDS011;43540;51.690;9.562;2023-08-08T15:56:22;5.45;;;3.10;;
57707;SDS011;43540;51.690;9.562;2023-08-08T15:58:48;6.93;;;3.38;;
57707;SDS011;43540;51.690;9.562;2023-08-08T16:01:15;4.60;;;3.22;;
57707;SDS011;43540;51.690;9.562;2023-08-08T16:03:42;8.18;;;3.40;;
57707;SDS011;43540;51.690;9.562;2023-08-08T16:06:09;4.90;;;3.63;;
57707;SDS011;43540;51.690;9.562;2023-08-08T16:08:36;5.28;;;3.08;;
57707;SDS011;43540;51.690;9.562;2023-08-08T16:11:02;6.65;;;3.60;;
57707;SDS011;43540;51.690;9.562;2023-08-08T16:13:34;7.25;;;3.78;;
57707;SDS011;43540;51.690;9.562;2023-08-08T16:16:01;5.43;;;3.42;;
57707;SDS011;43540;51.690;9.562;2023-08-08T16:18:29;5.47;;;3.50;;
57707;SDS011;43540;51.690;9.562;2023-08-08T16:20:57;6.32;;;3.42;;
57707;SDS011;43540;51.690;9.562;2023-08-08T16:23:24;5.88;;;3.53;;
57707;SDS011;43540;51.690;9.562;2023-08-08T16:25:50;6.70;;;3.40;;
57707;SDS011;43540;51.690;9.562;2023-08-08T16:28:17;4.30;;;3.05;;
57707;SDS011;43540;51.690;9.562;2023-08-08T16:30:44;6.80;;;3.53;;
57707;SDS011;43540;51.690;9.562;2023-08-08T16:33:11;6.20;;;3.63;;
57707;SDS011;43540;51.690;9.562;2023-08-08T16:35:42;7.35;;;3.60;;
57707;SDS011;43540;51.690;9.562;2023-08-08T16:38:09;6.90;;;3.63;;
57707;SDS011;43540;51.690;9.562;2023-08-08T16:40:39;8.73;;;3.90;;
57707;SDS011;43540;51.690;9.562;2023-08-08T16:43:06;6.10;;;3.47;;
57707;SDS011;43540;51.690;9.562;2023-08-08T16:45:34;5.22;;;3.60;;
57707;SDS011;43540;51.690;9.562;2023-08-08T16:48:00;7.75;;;3.55;;
57707;SDS011;43540;51.690;9.562;2023-08-08T16:50:27;11.95;;;3.58;;
57707;SDS011;43540;51.690;9.562;2023-08-08T16:52:54;5.85;;;3.20;;